createdAt,value
2023-05-13T00:00:23.198Z,64.81
2023-05-13T00:02:51.075Z,64.54
2023-05-13T00:05:18.911Z,65.18
2023-05-13T00:07:46.605Z,64.94
2023-05-13T00:10:14.199Z,65.51
2023-05-13T00:12:41.840Z,65.68
2023-05-13T00:15:11.817Z,67.75
2023-05-13T00:17:39.466Z,66.17
2023-05-13T00:20:08.678Z,66.76
2023-05-13T00:22:36.371Z,68.42
2023-05-13T00:25:04.144Z,67.94
2023-05-13T00:27:32.725Z,69.30
2023-05-13T00:30:00.765Z,68.49
2023-05-13T00:32:29.814Z,69.46
2023-05-13T00:34:57.616Z,67.90
2023-05-13T00:37:25.273Z,67.97
2023-05-13T00:39:53.020Z,66.70
2023-05-13T00:42:20.625Z,69.58
2023-05-13T00:44:48.270Z,70.83
2023-05-13T00:47:16.072Z,71.09
2023-05-13T00:49:45.394Z,69.40
2023-05-13T00:52:13.371Z,69.33
2023-05-13T00:54:41.048Z,70.28
2023-05-13T00:57:08.865Z,69.98
2023-05-13T00:59:36.570Z,69.62
2023-05-13T01:02:10.595Z,68.81
2023-05-13T01:04:45.430Z,69.15
2023-05-13T01:07:22.315Z,69.13
2023-05-13T01:10:02.493Z,68.66
2023-05-13T01:12:33.595Z,69.52
2023-05-13T01:15:06.783Z,71.70
2023-05-13T01:17:38.813Z,72.99
2023-05-13T01:20:09.305Z,71.79
2023-05-13T01:22:38.306Z,71.57
2023-05-13T01:25:06.389Z,71.08
2023-05-13T01:27:34.039Z,71.83
2023-05-13T01:30:01.897Z,71.94
2023-05-13T01:32:29.800Z,69.76
2023-05-13T01:34:57.836Z,72.72
2023-05-13T01:37:25.885Z,71.21
2023-05-13T01:39:55.137Z,70.82
2023-05-13T01:42:24.212Z,70.02
2023-05-13T01:44:52.617Z,69.57
2023-05-13T01:47:20.221Z,69.83
2023-05-13T01:49:47.947Z,70.17
2023-05-13T01:52:15.576Z,70.28
2023-05-13T01:54:43.185Z,70.06
2023-05-13T01:57:12.280Z,70.30
2023-05-13T01:59:40.041Z,70.47
2023-05-13T02:02:07.788Z,70.97
2023-05-13T02:04:35.591Z,70.10
2023-05-13T02:07:03.210Z,69.65
2023-05-13T02:09:30.890Z,69.79
2023-05-13T02:11:58.492Z,70.11
2023-05-13T02:14:27.467Z,70.47
2023-05-13T02:16:55.147Z,70.19
2023-05-13T02:19:22.799Z,69.48
2023-05-13T02:21:50.452Z,69.82
2023-05-13T02:24:18.164Z,68.59
2023-05-13T02:26:46.150Z,69.97
2023-05-13T02:29:15.004Z,72.28
2023-05-13T02:31:44.072Z,69.94
2023-05-13T02:34:11.756Z,70.03
2023-05-13T02:36:39.575Z,71.13
2023-05-13T02:39:07.277Z,71.37
2023-05-13T02:41:35.830Z,71.52
2023-05-13T02:44:03.431Z,71.40
2023-05-13T02:46:31.180Z,70.51
2023-05-13T02:49:00.414Z,70.33
2023-05-13T02:51:28.021Z,68.78
2023-05-13T02:53:55.641Z,70.34
2023-05-13T02:56:23.245Z,68.71
2023-05-13T02:58:50.870Z,69.48
2023-05-13T03:01:18.554Z,72.04
2023-05-13T03:03:46.269Z,69.98
2023-05-13T03:06:15.289Z,70.81
2023-05-13T03:08:42.883Z,68.98
2023-05-13T03:11:10.570Z,68.65
2023-05-13T03:13:38.197Z,72.01
2023-05-13T03:16:06.244Z,72.86
2023-05-13T03:18:33.921Z,72.20
2023-05-13T03:21:01.893Z,71.98
2023-05-13T03:23:30.902Z,71.44
2023-05-13T03:25:58.630Z,71.11
2023-05-13T03:28:26.296Z,72.23
2023-05-13T03:30:53.975Z,71.65
2023-05-13T03:33:21.793Z,71.60
2023-05-13T03:35:50.000Z,73.47
2023-05-13T03:38:17.725Z,72.86
2023-05-13T03:40:47.457Z,71.38
2023-05-13T03:43:15.170Z,71.60
2023-05-13T03:45:47.546Z,71.28
2023-05-13T03:48:15.776Z,72.75
2023-05-13T03:50:43.614Z,73.51
2023-05-13T03:53:11.761Z,72.48
2023-05-13T03:55:39.403Z,72.19
2023-05-13T03:58:14.274Z,71.77
2023-05-13T04:00:43.086Z,71.54
2023-05-13T04:03:10.833Z,72.33
2023-05-13T04:05:38.569Z,73.56
2023-05-13T04:08:06.404Z,72.00
2023-05-13T04:10:34.099Z,73.00
2023-05-13T04:13:01.688Z,71.13
2023-05-13T04:15:31.711Z,72.67
2023-05-13T04:17:59.986Z,72.88
2023-05-13T04:20:29.000Z,71.99
2023-05-13T04:22:56.853Z,75.49
2023-05-13T04:25:24.436Z,73.47
2023-05-13T04:27:52.070Z,75.87
2023-05-13T04:30:20.011Z,74.50
2023-05-13T04:32:49.341Z,75.56
2023-05-13T04:35:17.871Z,73.64
2023-05-13T04:37:45.726Z,74.90
2023-05-13T04:40:13.942Z,75.34
2023-05-13T04:42:41.587Z,73.68
2023-05-13T04:45:09.883Z,74.84
2023-05-13T04:47:38.155Z,74.55
2023-05-13T04:50:08.465Z,75.64
2023-05-13T04:52:37.337Z,76.47
2023-05-13T04:55:05.528Z,75.32
2023-05-13T04:57:33.516Z,74.12
2023-05-13T05:00:01.136Z,67.14
2023-05-13T05:02:29.961Z,63.16
2023-05-13T05:04:57.733Z,60.36
2023-05-13T05:07:26.692Z,62.45
2023-05-13T05:09:54.297Z,58.87
2023-05-13T05:12:21.950Z,56.51
2023-05-13T05:14:49.563Z,63.70
2023-05-13T05:17:17.404Z,61.19
2023-05-13T05:19:44.989Z,56.11
2023-05-13T05:22:12.578Z,51.60
2023-05-13T05:24:41.524Z,49.71
2023-05-13T05:27:09.147Z,53.24
2023-05-13T05:29:37.023Z,54.00
2023-05-13T05:32:05.163Z,57.00
2023-05-13T05:34:32.967Z,56.07
2023-05-13T05:37:00.689Z,48.12
2023-05-13T05:39:28.276Z,48.95
2023-05-13T05:41:57.314Z,48.85
2023-05-13T05:44:24.982Z,43.54
2023-05-13T05:46:53.758Z,51.54
2023-05-13T05:49:21.363Z,49.79
2023-05-13T05:51:48.953Z,48.18
2023-05-13T05:54:16.561Z,50.35
2023-05-13T05:56:44.213Z,47.47
2023-05-13T05:59:13.225Z,49.76
2023-05-13T06:01:40.849Z,49.44
2023-05-13T06:04:08.602Z,44.94
2023-05-13T06:06:36.483Z,42.33
2023-05-13T06:09:04.308Z,45.80
2023-05-13T06:11:31.927Z,41.69
2023-05-13T06:13:59.580Z,48.38
2023-05-13T06:16:28.737Z,41.45
2023-05-13T06:18:56.445Z,46.79
2023-05-13T06:21:24.101Z,45.68
2023-05-13T06:23:51.700Z,41.18
2023-05-13T06:26:19.458Z,43.43
2023-05-13T06:28:47.105Z,45.76
2023-05-13T06:31:14.791Z,39.43
2023-05-13T06:33:43.775Z,38.24
2023-05-13T06:36:11.455Z,45.04
2023-05-13T06:38:39.130Z,46.54
2023-05-13T06:41:07.238Z,42.65
2023-05-13T06:43:34.933Z,41.98
2023-05-13T06:46:02.633Z,42.45
2023-05-13T06:48:30.296Z,37.12
2023-05-13T06:50:59.279Z,38.76
2023-05-13T06:53:26.951Z,37.23
2023-05-13T06:55:54.622Z,36.01
2023-05-13T06:58:22.215Z,38.48
2023-05-13T07:00:50.007Z,36.60
2023-05-13T07:03:17.679Z,39.87
2023-05-13T07:05:45.334Z,43.11
2023-05-13T07:08:17.828Z,41.82
2023-05-13T07:10:45.989Z,36.68
2023-05-13T07:13:13.664Z,36.06
2023-05-13T07:15:41.494Z,34.86
2023-05-13T07:18:09.360Z,35.91
2023-05-13T07:20:37.096Z,33.05
2023-05-13T07:23:04.778Z,38.55
2023-05-13T07:25:34.020Z,34.90
2023-05-13T07:28:01.716Z,33.93
2023-05-13T07:30:29.356Z,33.53
2023-05-13T07:32:57.209Z,33.88
2023-05-13T07:35:25.148Z,38.60
2023-05-13T07:37:52.772Z,34.69
2023-05-13T07:40:21.108Z,35.23
2023-05-13T07:42:50.475Z,38.18
2023-05-13T07:45:18.193Z,34.66
2023-05-13T07:47:45.807Z,38.52
2023-05-13T07:50:13.515Z,38.31
2023-05-13T07:52:41.277Z,38.31
2023-05-13T07:55:10.773Z,34.80
2023-05-13T07:57:38.565Z,36.40
2023-05-13T08:00:08.911Z,34.97
2023-05-13T08:02:38.904Z,38.15
2023-05-13T08:05:07.524Z,37.01
2023-05-13T08:07:35.205Z,35.55
2023-05-13T08:10:02.842Z,38.03
2023-05-13T08:12:30.464Z,36.46
2023-05-13T08:14:58.066Z,35.26
2023-05-13T08:17:27.308Z,34.80
2023-05-13T08:19:54.976Z,37.25
2023-05-13T08:22:22.778Z,36.52
2023-05-13T08:24:50.911Z,37.90
2023-05-13T08:27:18.545Z,38.80
2023-05-13T08:29:46.241Z,39.68
2023-05-13T08:32:13.999Z,37.52
2023-05-13T08:34:43.011Z,40.46
2023-05-13T08:37:10.726Z,40.01
2023-05-13T08:39:38.335Z,39.07
2023-05-13T08:42:09.532Z,39.24
2023-05-13T08:44:40.630Z,38.40
2023-05-13T08:47:17.287Z,35.73
2023-05-13T08:49:47.333Z,36.09
2023-05-13T08:52:14.972Z,35.51
2023-05-13T08:54:44.508Z,36.26
2023-05-13T08:57:12.352Z,39.58
2023-05-13T08:59:39.949Z,40.90
2023-05-13T09:02:08.068Z,38.71
2023-05-13T09:04:37.859Z,39.87
2023-05-13T09:07:07.863Z,37.38
2023-05-13T09:09:36.144Z,40.47
2023-05-13T09:12:03.866Z,41.64
2023-05-13T09:14:32.563Z,39.89
2023-05-13T09:17:02.193Z,39.79
2023-05-13T09:19:30.464Z,40.17
2023-05-13T09:21:58.194Z,39.15
2023-05-13T09:24:27.184Z,42.31
2023-05-13T09:26:54.870Z,40.88
2023-05-13T09:29:23.743Z,40.59
2023-05-13T09:31:54.160Z,39.63
2023-05-13T09:34:29.930Z,42.09
2023-05-13T09:36:59.149Z,41.31
2023-05-13T09:39:28.592Z,40.49
2023-05-13T09:41:56.445Z,39.75
2023-05-13T09:44:24.424Z,41.58
2023-05-13T09:46:53.795Z,41.84
2023-05-13T09:49:24.324Z,43.57
2023-05-13T09:51:52.030Z,43.22
2023-05-13T09:54:19.788Z,42.06
2023-05-13T09:56:49.736Z,42.11
2023-05-13T09:59:18.004Z,41.79
2023-05-13T10:01:47.809Z,40.36
2023-05-13T10:04:16.490Z,40.95
2023-05-13T10:06:46.717Z,41.52
2023-05-13T10:09:17.755Z,40.85
2023-05-13T10:11:49.432Z,42.11
2023-05-13T10:14:18.192Z,40.86
2023-05-13T10:16:47.758Z,42.81
2023-05-13T10:19:16.164Z,41.65
2023-05-13T10:21:44.658Z,42.12
2023-05-13T10:24:13.100Z,42.70
2023-05-13T10:26:41.666Z,41.60
2023-05-13T10:29:11.447Z,43.18
2023-05-13T10:31:39.697Z,43.66
2023-05-13T10:34:07.623Z,43.27
2023-05-13T10:37:04.732Z,41.47
2023-05-13T10:39:54.903Z,41.85
2023-05-13T10:42:42.741Z,42.50
2023-05-13T10:45:12.334Z,40.92
2023-05-13T10:47:40.295Z,40.81
2023-05-13T10:50:23.022Z,39.84
2023-05-13T10:52:51.162Z,40.54
2023-05-13T10:55:20.906Z,40.07
2023-05-13T10:58:06.049Z,40.59
2023-05-13T11:00:35.554Z,41.86
2023-05-13T11:03:14.738Z,40.94
2023-05-13T11:05:44.947Z,40.64
2023-05-13T11:08:12.843Z,40.96
2023-05-13T11:10:42.089Z,40.01
2023-05-13T11:13:22.794Z,40.17
2023-05-13T11:15:53.118Z,39.07
2023-05-13T11:18:21.738Z,40.52
2023-05-13T11:20:54.466Z,39.56
2023-05-13T11:23:22.638Z,39.06
2023-05-13T11:26:12.446Z,39.97
2023-05-13T11:29:00.933Z,40.87
2023-05-13T11:31:43.937Z,39.90
2023-05-13T11:34:13.979Z,39.84
2023-05-13T11:36:44.138Z,38.46
2023-05-13T11:39:14.480Z,37.74
2023-05-13T11:41:44.376Z,37.78
2023-05-13T11:44:13.402Z,38.00
2023-05-13T11:46:52.445Z,36.82
2023-05-13T11:49:38.713Z,37.04
2023-05-13T11:52:08.739Z,37.67
2023-05-13T11:54:48.376Z,36.98
2023-05-13T11:57:23.494Z,35.56
2023-05-13T11:59:52.744Z,35.98
2023-05-13T12:02:23.440Z,34.69
2023-05-13T12:04:52.228Z,35.17
2023-05-13T12:07:24.613Z,33.67
2023-05-13T12:09:53.569Z,33.58
2023-05-13T12:12:21.665Z,33.70
2023-05-13T12:14:51.105Z,33.48
2023-05-13T12:17:19.487Z,34.23
2023-05-13T12:20:11.456Z,33.32
2023-05-13T12:22:50.458Z,33.60
2023-05-13T12:25:41.397Z,33.65
2023-05-13T12:28:16.467Z,34.19
2023-05-13T12:30:45.402Z,33.86
2023-05-13T12:33:16.996Z,32.96
2023-05-13T12:35:48.268Z,31.70
2023-05-13T12:38:18.243Z,32.73
2023-05-13T12:40:46.920Z,33.37
2023-05-13T12:43:15.304Z,32.18
2023-05-13T12:45:46.880Z,32.21
2023-05-13T12:48:14.840Z,31.78
2023-05-13T12:50:44.573Z,32.24
2023-05-13T12:53:13.555Z,32.03
2023-05-13T12:55:41.236Z,33.72
2023-05-13T12:58:11.213Z,32.77
2023-05-13T13:00:39.181Z,32.86
2023-05-13T13:03:07.905Z,32.88
2023-05-13T13:05:36.025Z,32.81
2023-05-13T13:08:05.146Z,33.81
2023-05-13T13:10:34.230Z,34.36
2023-05-13T13:13:01.890Z,34.26
2023-05-13T13:15:29.651Z,34.28
2023-05-13T13:17:57.326Z,33.88
2023-05-13T13:20:25.308Z,32.49
2023-05-13T13:22:54.281Z,32.30
2023-05-13T13:25:22.163Z,31.56
2023-05-13T13:27:51.500Z,32.08
2023-05-13T13:30:19.197Z,32.44
2023-05-13T13:32:46.895Z,31.13
2023-05-13T13:35:14.537Z,32.92
2023-05-13T13:37:42.196Z,31.54
2023-05-13T13:40:10.974Z,31.54
2023-05-13T13:42:44.212Z,31.39
2023-05-13T13:45:14.593Z,31.55
2023-05-13T13:47:42.685Z,32.34
2023-05-13T13:50:11.486Z,31.64
2023-05-13T13:52:39.286Z,31.35
2023-05-13T13:55:08.145Z,32.53
2023-05-13T13:57:35.732Z,31.67
2023-05-13T14:00:03.365Z,33.13
2023-05-13T14:02:32.493Z,32.79
2023-05-13T14:05:00.212Z,32.24
2023-05-13T14:07:27.859Z,32.90
2023-05-13T14:09:55.815Z,33.40
2023-05-13T14:12:23.414Z,33.60
2023-05-13T14:14:51.033Z,33.82
2023-05-13T14:17:18.638Z,33.42
2023-05-13T14:19:51.580Z,32.75
2023-05-13T14:22:19.321Z,32.52
2023-05-13T14:24:47.020Z,33.05
2023-05-13T14:27:15.022Z,32.40
2023-05-13T14:29:42.700Z,31.55
2023-05-13T14:32:10.398Z,30.90
2023-05-13T14:34:38.040Z,30.35
2023-05-13T14:37:07.162Z,29.51
2023-05-13T14:39:35.145Z,30.30
2023-05-13T14:42:02.834Z,30.91
2023-05-13T14:44:30.538Z,31.00
2023-05-13T14:46:58.328Z,31.01
2023-05-13T14:49:26.129Z,30.59
2023-05-13T14:51:53.817Z,30.89
2023-05-13T14:54:23.204Z,30.44
2023-05-13T14:56:52.074Z,30.39
2023-05-13T14:59:19.948Z,29.45
2023-05-13T15:01:47.659Z,29.92
2023-05-13T15:04:15.322Z,30.20
2023-05-13T15:06:42.993Z,30.60
2023-05-13T15:09:10.639Z,31.09
2023-05-13T15:11:42.167Z,30.45
2023-05-13T15:14:10.661Z,30.50
2023-05-13T15:16:38.341Z,29.21
2023-05-13T15:19:08.182Z,28.48
2023-05-13T15:21:35.990Z,29.19
2023-05-13T15:24:03.608Z,29.24
2023-05-13T15:26:31.454Z,28.53
2023-05-13T15:29:00.488Z,28.63
2023-05-13T15:31:28.200Z,28.97
2023-05-13T15:33:55.950Z,28.95
2023-05-13T15:36:23.684Z,29.23
2023-05-13T15:38:51.368Z,29.03
2023-05-13T15:41:19.062Z,29.69
2023-05-13T15:43:46.789Z,29.50
2023-05-13T15:46:15.914Z,28.94
2023-05-13T15:48:43.898Z,29.95
2023-05-13T15:51:17.841Z,29.98
2023-05-13T15:53:45.509Z,30.15
2023-05-13T15:56:13.210Z,30.91
2023-05-13T15:58:40.995Z,30.04
2023-05-13T16:01:08.677Z,30.81
2023-05-13T16:03:38.645Z,30.62
2023-05-13T16:06:06.677Z,30.39
2023-05-13T16:08:34.667Z,30.80
2023-05-13T16:11:02.305Z,30.83
2023-05-13T16:13:30.041Z,30.52
2023-05-13T16:15:57.752Z,30.44
2023-05-13T16:18:25.451Z,30.46
2023-05-13T16:20:54.891Z,30.28
2023-05-13T16:23:22.496Z,30.67
2023-05-13T16:25:50.178Z,30.41
2023-05-13T16:28:17.798Z,29.18
2023-05-13T16:30:45.425Z,29.03
2023-05-13T16:33:15.028Z,28.84
2023-05-13T16:35:42.703Z,28.85
2023-05-13T16:38:12.528Z,29.92
2023-05-13T16:40:40.223Z,29.44
2023-05-13T16:43:07.873Z,29.15
2023-05-13T16:45:35.667Z,28.31
2023-05-13T16:48:03.503Z,29.55
2023-05-13T16:50:31.368Z,29.53
2023-05-13T16:52:58.963Z,30.28
2023-05-13T16:55:28.031Z,30.21
2023-05-13T16:57:55.627Z,30.33
2023-05-13T17:00:23.661Z,30.42
2023-05-13T17:02:51.565Z,30.91
2023-05-13T17:05:19.475Z,30.71
2023-05-13T17:07:47.111Z,30.06
2023-05-13T17:10:14.710Z,30.41
2023-05-13T17:12:43.654Z,30.17
2023-05-13T17:15:12.151Z,29.82
2023-05-13T17:17:39.857Z,30.39
2023-05-13T17:20:08.500Z,30.20
2023-05-13T17:22:36.128Z,29.94
2023-05-13T17:25:04.205Z,30.42
2023-05-13T17:27:31.848Z,31.01
2023-05-13T17:30:00.839Z,31.34
2023-05-13T17:32:28.536Z,30.90
2023-05-13T17:34:56.216Z,31.13
2023-05-13T17:37:25.066Z,31.05
2023-05-13T17:39:52.763Z,31.41
2023-05-13T17:42:20.391Z,31.67
2023-05-13T17:44:48.118Z,31.05
2023-05-13T17:47:17.161Z,30.79
2023-05-13T17:49:44.775Z,32.50
2023-05-13T17:52:12.479Z,31.64
2023-05-13T17:54:40.169Z,32.22
2023-05-13T17:57:09.903Z,31.71
2023-05-13T17:59:37.601Z,31.68
2023-05-13T18:02:05.460Z,32.16
2023-05-13T18:04:34.469Z,31.34
2023-05-13T18:07:02.109Z,32.17
2023-05-13T18:09:29.675Z,32.42
2023-05-13T18:11:57.276Z,32.50
2023-05-13T18:14:24.985Z,31.89
2023-05-13T18:16:52.602Z,31.71
2023-05-13T18:19:20.355Z,32.16
2023-05-13T18:21:49.527Z,32.61
2023-05-13T18:24:17.093Z,32.18
2023-05-13T18:26:44.697Z,33.08
2023-05-13T18:29:12.427Z,33.23
2023-05-13T18:31:40.113Z,33.36
2023-05-13T18:34:07.823Z,33.76
2023-05-13T18:36:35.644Z,33.31
2023-05-13T18:39:04.667Z,33.61
2023-05-13T18:41:32.300Z,34.50
2023-05-13T18:44:00.170Z,33.45
2023-05-13T18:46:27.920Z,33.36
2023-05-13T18:48:55.674Z,33.29
2023-05-13T18:51:23.336Z,33.91
2023-05-13T18:53:51.068Z,34.70
2023-05-13T18:56:20.098Z,33.80
2023-05-13T18:58:47.825Z,34.14
2023-05-13T19:01:16.338Z,34.70
2023-05-13T19:03:44.206Z,35.34
2023-05-13T19:06:11.952Z,35.96
2023-05-13T19:08:39.733Z,36.61
2023-05-13T19:11:07.337Z,36.57
2023-05-13T19:13:46.718Z,35.89
2023-05-13T19:16:15.560Z,36.57
2023-05-13T19:18:43.329Z,37.12
2023-05-13T19:21:11.002Z,36.33
2023-05-13T19:23:38.977Z,37.73
2023-05-13T19:26:06.894Z,38.23
2023-05-13T19:28:37.997Z,38.46
2023-05-13T19:31:05.939Z,40.50
2023-05-13T19:33:33.831Z,40.66
2023-05-13T19:36:01.546Z,43.39
2023-05-13T19:38:29.196Z,43.04
2023-05-13T19:40:56.827Z,42.46
2023-05-13T19:43:25.272Z,42.37
2023-05-13T19:45:55.427Z,43.48
2023-05-13T19:48:23.091Z,44.19
2023-05-13T19:50:53.309Z,43.49
2023-05-13T19:53:21.855Z,44.11
2023-05-13T19:55:49.592Z,44.09
2023-05-13T19:58:17.625Z,44.41
2023-05-13T20:00:45.249Z,44.83
2023-05-13T20:03:14.632Z,45.76
2023-05-13T20:05:42.336Z,46.71
2023-05-13T20:08:09.957Z,47.10
2023-05-13T20:10:37.601Z,48.01
2023-05-13T20:13:05.214Z,47.82
2023-05-13T20:15:33.142Z,49.21
2023-05-13T20:18:00.816Z,49.63
2023-05-13T20:20:29.796Z,49.88
2023-05-13T20:22:57.446Z,52.69
2023-05-13T20:25:25.100Z,51.21
2023-05-13T20:27:52.705Z,50.96
2023-05-13T20:30:20.919Z,51.75
2023-05-13T20:32:48.725Z,51.88
2023-05-13T20:35:16.491Z,52.65
2023-05-13T20:37:45.591Z,51.95
2023-05-13T20:40:13.724Z,51.20
2023-05-13T20:42:41.342Z,53.96
2023-05-13T20:45:09.757Z,55.73
2023-05-13T20:47:38.253Z,55.10
2023-05-13T20:50:06.795Z,53.43
2023-05-13T20:52:34.499Z,54.49
2023-05-13T20:55:03.480Z,53.83
2023-05-13T20:57:31.111Z,54.37
2023-05-13T20:59:58.707Z,54.63
2023-05-13T21:02:26.373Z,54.50
2023-05-13T21:04:54.054Z,54.27
2023-05-13T21:07:21.690Z,54.92
2023-05-13T21:09:49.301Z,55.31
2023-05-13T21:12:18.323Z,56.21
2023-05-13T21:14:45.900Z,55.83
2023-05-13T21:17:13.558Z,56.43
2023-05-13T21:19:41.207Z,56.40
2023-05-13T21:22:08.838Z,56.00
2023-05-13T21:24:36.413Z,57.03
2023-05-13T21:27:04.047Z,57.10
2023-05-13T21:29:33.103Z,56.51
2023-05-13T21:32:00.772Z,56.82
2023-05-13T21:34:28.355Z,55.91
2023-05-13T21:36:55.945Z,56.36
2023-05-13T21:39:23.601Z,57.19
2023-05-13T21:41:51.208Z,57.27
2023-05-13T21:44:18.840Z,58.15
2023-05-13T21:46:47.854Z,56.70
2023-05-13T21:49:15.470Z,57.29
2023-05-13T21:51:43.072Z,56.68
2023-05-13T21:54:10.908Z,58.47
2023-05-13T21:56:38.569Z,58.67
2023-05-13T21:59:06.225Z,60.53
2023-05-13T22:01:33.856Z,59.91
2023-05-13T22:04:02.919Z,58.89
2023-05-13T22:06:30.956Z,59.09
2023-05-13T22:08:58.689Z,58.96
2023-05-13T22:11:26.489Z,59.73
2023-05-13T22:13:54.155Z,60.43
2023-05-13T22:16:22.027Z,59.58
2023-05-13T22:18:50.863Z,61.07
2023-05-13T22:21:19.917Z,60.26
2023-05-13T22:23:47.600Z,60.60
2023-05-13T22:26:15.243Z,60.96
2023-05-13T22:28:42.845Z,61.26
2023-05-13T22:31:10.580Z,61.75
2023-05-13T22:33:38.274Z,62.71
2023-05-13T22:36:06.515Z,62.70
2023-05-13T22:38:35.502Z,62.19
2023-05-13T22:41:03.124Z,62.29
2023-05-13T22:43:30.820Z,62.05
2023-05-13T22:45:58.416Z,62.56
2023-05-13T22:48:26.717Z,63.17
2023-05-13T22:50:56.956Z,62.57
2023-05-13T22:53:25.129Z,64.73
2023-05-13T22:55:54.425Z,64.31
2023-05-13T22:58:22.453Z,64.23
2023-05-13T23:00:50.723Z,63.38
2023-05-13T23:03:18.895Z,63.71
2023-05-13T23:05:46.536Z,63.85
2023-05-13T23:08:14.104Z,63.74
2023-05-13T23:10:41.771Z,64.33
2023-05-13T23:13:10.709Z,64.92
2023-05-13T23:15:38.356Z,65.43
2023-05-13T23:18:06.242Z,64.63
2023-05-13T23:20:33.926Z,65.36
2023-05-13T23:23:01.559Z,65.16
2023-05-13T23:25:29.228Z,65.15
2023-05-13T23:27:56.865Z,65.54
2023-05-13T23:30:25.986Z,66.30
2023-05-13T23:32:53.728Z,66.36
2023-05-13T23:35:21.445Z,66.15
2023-05-13T23:37:49.096Z,66.01
2023-05-13T23:40:16.974Z,66.73
2023-05-13T23:42:44.642Z,66.51
2023-05-13T23:45:12.607Z,65.97
2023-05-13T23:47:41.618Z,65.84
2023-05-13T23:50:09.806Z,65.64
2023-05-13T23:52:37.430Z,65.76
2023-05-13T23:55:06.060Z,67.04
2023-05-13T23:57:33.691Z,66.08
